Airfield :
LOGIN :

Register | Disclaimer

   EN    FR    IT 

 










Legend :    VFR   Marginal VFR   IFR   Intensive IFR   Very Intensive IFR
Visi :
Ceiling :
>= 8 km
>= 3000ft
5 to 8 km
1000 to 3000 ft
1500m to 5 km
500 to 1000 ft
800 to 1500m
200 to 500 ft
< 800m
< 200 ft
Symbols :   Thunderstorms  Fog  Heavy snow  Heavy precipitations  Wind > 20 kt
SIGMETs :     Misc.  Thunderstorms  Icing  Turbulence  Mountain Waves  Volcanic Ashes







- Airport Elevation : 1000 ft
- IATA code : PEV


LHPP - Pécs Pogany

CURRENT METAR :
  • 121645Z 00000KT 9999 SCT016 OVC083 11/07 Q1012

EXPIRED METARs :
  • 121615Z 32004KT 9999 SCT016 OVC083 11/08 Q1012
  • 121545Z 36005KT 9999 SCT016 OVC083 11/08 Q1012
  • 121515Z 32009KT 9999 SCT023 OVC083 12/08 Q1011
  • 121445Z 31008KT 9999 SCT040 OVC083 13/07 Q1011

TAF TAF LHPP
Valid from the 12 at 15:00 until the 13 at 00:00 UTC


121415Z 1215/1224 24007KT 9999 FEW040 BKN083
BECMG 1215/1218 35006KT 9999 -RA BKN030 OVC060
TEMPO 1218/1224 28005KT 3000 RA BKN010 OVC030
No reported NOTAMs for that airfield.
2 SIGMETs reported for the Budapest FIR (LHCC) :
 
Severe icing
LHCC SIGMET 03 VALID 121800/122100 LHBP
LHCC BUDAPEST FIR SEV ICE FCST SE OF LINE N4701 E01637 - N4738 E01807 AND NW OF LINE N4804 E02241 - N4602 E01949 9500FT/FL120 STNR WKN=
Severe turbulence
LHCC SIGMET 02 VALID 121645/121830 LHBP
LHCC BUDAPEST FIR SEV TURB FCST NW OF LINE N4747 E01840 - N4611 E01702 FL120/200 MOV NE NC=



MET'MAP, your aeronautical weather chart ! - Copyright ORBIFLY December 2007 - Disclaimer

ORBIFLY MET'MAP TEAM :

Programming & Development : Alexandra Zaïnal
Concept & Development : Baudouin d'Aumeries
Co-Development & Prog : Marc-Olivier Méhu
Technical & hardware support : Manuel Goepfert

Contact : metmap@orbifly.com




SOURCES & CREDITS :

   NOAA